sensor_id;sensor_type;location;lat;lon;timestamp;pressure;altitude;pressure_sealevel;temperature;humidity
64551;BME280;50945;44.472;-123.352;2023-03-16T00:00:06;101118.78;;;10.03;60.59
64551;BME280;50945;44.472;-123.352;2023-03-16T00:02:34;101112.78;;;9.99;64.54
64551;BME280;50945;44.472;-123.352;2023-03-16T00:05:00;101125.38;;;9.92;63.94
64551;BME280;50945;44.472;-123.352;2023-03-16T00:07:26;101122.81;;;9.90;63.73
64551;BME280;50945;44.472;-123.352;2023-03-16T00:09:52;101115.47;;;9.91;63.97
64551;BME280;50945;44.472;-123.352;2023-03-16T00:12:19;101111.41;;;9.95;63.95
64551;BME280;50945;44.472;-123.352;2023-03-16T00:14:48;101115.53;;;9.99;64.44
64551;BME280;50945;44.472;-123.352;2023-03-16T00:17:16;101107.00;;;10.02;64.48
64551;BME280;50945;44.472;-123.352;2023-03-16T00:19:53;101117.94;;;10.02;62.98
64551;BME280;50945;44.472;-123.352;2023-03-16T00:22:29;101106.63;;;9.97;59.63
64551;BME280;50945;44.472;-123.352;2023-03-16T00:24:55;101125.22;;;9.94;63.49
64551;BME280;50945;44.472;-123.352;2023-03-16T00:27:23;101119.75;;;9.94;64.36
64551;BME280;50945;44.472;-123.352;2023-03-16T00:29:52;101124.00;;;9.88;63.33
64551;BME280;50945;44.472;-123.352;2023-03-16T00:32:29;101126.91;;;9.86;63.79
64551;BME280;50945;44.472;-123.352;2023-03-16T00:34:58;101127.38;;;9.82;64.70
64551;BME280;50945;44.472;-123.352;2023-03-16T00:37:25;101124.94;;;9.79;63.96
64551;BME280;50945;44.472;-123.352;2023-03-16T00:39:52;101121.38;;;9.78;63.94
64551;BME280;50945;44.472;-123.352;2023-03-16T00:42:22;101124.09;;;9.78;64.66
64551;BME280;50945;44.472;-123.352;2023-03-16T00:44:53;101125.13;;;9.77;64.90
64551;BME280;50945;44.472;-123.352;2023-03-16T00:47:30;101121.69;;;9.75;63.82
64551;BME280;50945;44.472;-123.352;2023-03-16T00:49:57;101124.75;;;9.72;64.15
64551;BME280;50945;44.472;-123.352;2023-03-16T00:52:24;101122.19;;;9.70;63.87
64551;BME280;50945;44.472;-123.352;2023-03-16T00:54:53;101117.56;;;9.71;63.61
64551;BME280;50945;44.472;-123.352;2023-03-16T00:57:21;101121.16;;;9.71;63.90
64551;BME280;50945;44.472;-123.352;2023-03-16T00:59:49;101110.06;;;9.73;63.94
64551;BME280;50945;44.472;-123.352;2023-03-16T01:02:17;101108.22;;;9.74;63.74
64551;BME280;50945;44.472;-123.352;2023-03-16T01:04:48;101110.22;;;9.71;63.99
64551;BME280;50945;44.472;-123.352;2023-03-16T01:07:14;101120.47;;;9.69;55.70
64551;BME280;50945;44.472;-123.352;2023-03-16T01:09:41;101119.47;;;9.70;64.14
64551;BME280;50945;44.472;-123.352;2023-03-16T01:12:13;101119.91;;;9.66;64.21
64551;BME280;50945;44.472;-123.352;2023-03-16T01:14:41;101113.22;;;9.60;64.10
64551;BME280;50945;44.472;-123.352;2023-03-16T01:17:11;101118.47;;;9.54;64.70
64551;BME280;50945;44.472;-123.352;2023-03-16T01:19:39;101120.66;;;9.50;65.44
64551;BME280;50945;44.472;-123.352;2023-03-16T01:22:06;101121.31;;;9.44;65.20
64551;BME280;50945;44.472;-123.352;2023-03-16T01:24:34;101120.78;;;9.40;65.42
64551;BME280;50945;44.472;-123.352;2023-03-16T01:27:01;101118.34;;;9.37;65.40
64551;BME280;50945;44.472;-123.352;2023-03-16T01:29:27;101124.47;;;9.31;57.77
64551;BME280;50945;44.472;-123.352;2023-03-16T01:31:54;101121.19;;;9.27;64.97
64551;BME280;50945;44.472;-123.352;2023-03-16T01:34:21;101122.84;;;9.20;64.89
64551;BME280;50945;44.472;-123.352;2023-03-16T01:36:47;101124.78;;;9.10;57.71
64551;BME280;50945;44.472;-123.352;2023-03-16T01:39:15;101131.53;;;9.06;65.33
64551;BME280;50945;44.472;-123.352;2023-03-16T01:41:42;101127.72;;;8.99;65.17
64551;BME280;50945;44.472;-123.352;2023-03-16T01:44:12;101121.72;;;8.95;65.50
64551;BME280;50945;44.472;-123.352;2023-03-16T01:46:39;101125.78;;;8.91;66.08
64551;BME280;50945;44.472;-123.352;2023-03-16T01:49:11;101123.50;;;8.86;65.99
64551;BME280;50945;44.472;-123.352;2023-03-16T01:54:13;101125.00;;;8.81;65.90
64551;BME280;50945;44.472;-123.352;2023-03-16T01:56:51;101125.31;;;8.78;65.26
64551;BME280;50945;44.472;-123.352;2023-03-16T01:59:24;101119.63;;;8.71;66.44
64551;BME280;50945;44.472;-123.352;2023-03-16T02:01:55;101122.94;;;8.65;66.35
64551;BME280;50945;44.472;-123.352;2023-03-16T02:04:43;101126.31;;;8.59;66.24
64551;BME280;50945;44.472;-123.352;2023-03-16T02:10:25;101118.06;;;8.41;66.71
64551;BME280;50945;44.472;-123.352;2023-03-16T02:12:53;101128.00;;;8.32;66.54
64551;BME280;50945;44.472;-123.352;2023-03-16T02:15:19;101128.03;;;8.22;66.90
64551;BME280;50945;44.472;-123.352;2023-03-16T02:17:46;101128.94;;;8.13;67.02
64551;BME280;50945;44.472;-123.352;2023-03-16T02:22:51;101133.91;;;7.90;67.44
64551;BME280;50945;44.472;-123.352;2023-03-16T02:25:30;101127.47;;;7.81;67.54
64551;BME280;50945;44.472;-123.352;2023-03-16T02:28:24;101131.09;;;7.72;68.11
64551;BME280;50945;44.472;-123.352;2023-03-16T02:30:50;101136.13;;;7.67;67.90
64551;BME280;50945;44.472;-123.352;2023-03-16T02:33:16;101132.13;;;7.61;67.40
64551;BME280;50945;44.472;-123.352;2023-03-16T02:35:44;101129.81;;;7.56;67.85
64551;BME280;50945;44.472;-123.352;2023-03-16T02:38:10;101136.44;;;7.54;67.61
64551;BME280;50945;44.472;-123.352;2023-03-16T02:40:36;101130.28;;;7.52;67.74
64551;BME280;50945;44.472;-123.352;2023-03-16T02:43:06;101132.44;;;7.48;67.94
64551;BME280;50945;44.472;-123.352;2023-03-16T02:45:56;101131.72;;;7.36;68.71
64551;BME280;50945;44.472;-123.352;2023-03-16T02:48:35;101124.88;;;7.22;70.25
64551;BME280;50945;44.472;-123.352;2023-03-16T02:51:03;101132.16;;;7.12;71.24
64551;BME280;50945;44.472;-123.352;2023-03-16T02:53:29;101128.88;;;6.99;72.38
64551;BME280;50945;44.472;-123.352;2023-03-16T02:55:55;101127.72;;;6.82;72.61
64551;BME280;50945;44.472;-123.352;2023-03-16T02:58:22;101133.69;;;6.66;72.88
64551;BME280;50945;44.472;-123.352;2023-03-16T03:00:48;101140.13;;;6.55;73.56
64551;BME280;50945;44.472;-123.352;2023-03-16T03:03:14;101137.53;;;6.44;73.61
64551;BME280;50945;44.472;-123.352;2023-03-16T03:05:40;101133.34;;;6.30;74.04
64551;BME280;50945;44.472;-123.352;2023-03-16T03:08:07;101130.59;;;6.20;74.46
64551;BME280;50945;44.472;-123.352;2023-03-16T03:10:33;101139.84;;;6.08;74.67
64551;BME280;50945;44.472;-123.352;2023-03-16T03:12:59;101135.22;;;5.99;74.93
64551;BME280;50945;44.472;-123.352;2023-03-16T03:15:26;101131.44;;;5.90;74.98
64551;BME280;50945;44.472;-123.352;2023-03-16T03:17:52;101138.41;;;5.83;74.88
64551;BME280;50945;44.472;-123.352;2023-03-16T03:20:18;101139.94;;;5.76;75.22
64551;BME280;50945;44.472;-123.352;2023-03-16T03:22:48;101137.75;;;5.69;75.09
64551;BME280;50945;44.472;-123.352;2023-03-16T03:25:16;101139.28;;;5.62;75.06
64551;BME280;50945;44.472;-123.352;2023-03-16T03:27:43;101145.50;;;5.53;75.21
64551;BME280;50945;44.472;-123.352;2023-03-16T03:30:17;101139.75;;;5.46;75.54
64551;BME280;50945;44.472;-123.352;2023-03-16T03:32:46;101129.56;;;5.39;75.63
64551;BME280;50945;44.472;-123.352;2023-03-16T03:35:14;101140.22;;;5.30;76.01
64551;BME280;50945;44.472;-123.352;2023-03-16T03:37:41;101140.75;;;5.24;76.42
64551;BME280;50945;44.472;-123.352;2023-03-16T03:40:11;101138.66;;;5.17;76.42
64551;BME280;50945;44.472;-123.352;2023-03-16T03:42:39;101139.47;;;5.07;76.46
64551;BME280;50945;44.472;-123.352;2023-03-16T03:45:06;101136.28;;;5.02;76.36
64551;BME280;50945;44.472;-123.352;2023-03-16T03:47:33;101134.34;;;4.93;76.72
64551;BME280;50945;44.472;-123.352;2023-03-16T03:49:59;101138.81;;;4.83;77.65
64551;BME280;50945;44.472;-123.352;2023-03-16T03:52:27;101135.28;;;4.71;77.58
64551;BME280;50945;44.472;-123.352;2023-03-16T03:54:53;101132.34;;;4.63;78.32
64551;BME280;50945;44.472;-123.352;2023-03-16T03:57:19;101135.84;;;4.53;78.54
64551;BME280;50945;44.472;-123.352;2023-03-16T03:59:45;101132.03;;;4.45;78.54
64551;BME280;50945;44.472;-123.352;2023-03-16T04:02:12;101132.41;;;4.40;79.09
64551;BME280;50945;44.472;-123.352;2023-03-16T04:04:40;101127.50;;;4.34;79.39
64551;BME280;50945;44.472;-123.352;2023-03-16T04:07:07;101121.84;;;4.26;80.10
64551;BME280;50945;44.472;-123.352;2023-03-16T04:09:34;101131.31;;;4.20;79.66
64551;BME280;50945;44.472;-123.352;2023-03-16T04:12:03;101132.56;;;4.16;79.67
64551;BME280;50945;44.472;-123.352;2023-03-16T04:14:30;101132.81;;;4.13;80.81
64551;BME280;50945;44.472;-123.352;2023-03-16T04:16:56;101136.59;;;4.10;80.46
64551;BME280;50945;44.472;-123.352;2023-03-16T04:19:23;101138.56;;;4.08;80.72
64551;BME280;50945;44.472;-123.352;2023-03-16T04:21:50;101133.16;;;4.08;80.44
64551;BME280;50945;44.472;-123.352;2023-03-16T04:24:17;101133.44;;;4.05;80.70
64551;BME280;50945;44.472;-123.352;2023-03-16T04:26:44;101133.56;;;4.04;80.75
64551;BME280;50945;44.472;-123.352;2023-03-16T04:29:12;101132.81;;;4.02;80.68
64551;BME280;50945;44.472;-123.352;2023-03-16T04:31:39;101142.25;;;3.96;81.00
64551;BME280;50945;44.472;-123.352;2023-03-16T04:34:07;101131.94;;;3.90;81.24
64551;BME280;50945;44.472;-123.352;2023-03-16T04:36:33;101132.56;;;3.82;81.20
64551;BME280;50945;44.472;-123.352;2023-03-16T04:38:59;101129.50;;;3.75;81.83
64551;BME280;50945;44.472;-123.352;2023-03-16T04:41:26;101130.69;;;3.71;81.85
64551;BME280;50945;44.472;-123.352;2023-03-16T04:43:53;101128.13;;;3.70;81.65
64551;BME280;50945;44.472;-123.352;2023-03-16T04:46:19;101127.03;;;3.72;81.59
64551;BME280;50945;44.472;-123.352;2023-03-16T04:48:46;101120.63;;;3.73;81.35
64551;BME280;50945;44.472;-123.352;2023-03-16T04:51:13;101127.75;;;3.74;82.06
64551;BME280;50945;44.472;-123.352;2023-03-16T04:53:39;101119.75;;;3.73;83.92
64551;BME280;50945;44.472;-123.352;2023-03-16T04:56:05;101108.19;;;3.71;81.63
64551;BME280;50945;44.472;-123.352;2023-03-16T04:58:32;101106.75;;;3.67;81.92
64551;BME280;50945;44.472;-123.352;2023-03-16T05:00:59;101111.41;;;3.65;82.04
64551;BME280;50945;44.472;-123.352;2023-03-16T05:03:26;101115.47;;;3.59;82.19
64551;BME280;50945;44.472;-123.352;2023-03-16T05:05:52;101114.97;;;3.54;82.12
64551;BME280;50945;44.472;-123.352;2023-03-16T05:08:18;101122.69;;;3.47;82.50
64551;BME280;50945;44.472;-123.352;2023-03-16T05:10:45;101119.59;;;3.40;82.81
64551;BME280;50945;44.472;-123.352;2023-03-16T05:13:12;101110.00;;;3.36;82.09
64551;BME280;50945;44.472;-123.352;2023-03-16T05:15:40;101115.66;;;3.33;82.67
64551;BME280;50945;44.472;-123.352;2023-03-16T05:18:06;101116.88;;;3.29;83.01
64551;BME280;50945;44.472;-123.352;2023-03-16T05:20:32;101117.97;;;3.27;83.21
64551;BME280;50945;44.472;-123.352;2023-03-16T05:22:59;101118.22;;;3.23;82.87
64551;BME280;50945;44.472;-123.352;2023-03-16T05:25:25;101124.72;;;3.21;83.44
64551;BME280;50945;44.472;-123.352;2023-03-16T05:27:52;101117.72;;;3.18;83.37
64551;BME280;50945;44.472;-123.352;2023-03-16T05:30:20;101118.91;;;3.14;83.47
64551;BME280;50945;44.472;-123.352;2023-03-16T05:32:46;101115.84;;;3.08;83.50
64551;BME280;50945;44.472;-123.352;2023-03-16T05:35:12;101114.22;;;3.05;82.73
64551;BME280;50945;44.472;-123.352;2023-03-16T05:37:40;101116.81;;;3.07;82.87
64551;BME280;50945;44.472;-123.352;2023-03-16T05:40:10;101119.63;;;3.05;83.67
64551;BME280;50945;44.472;-123.352;2023-03-16T05:42:45;101111.50;;;3.05;84.37
64551;BME280;50945;44.472;-123.352;2023-03-16T05:45:14;101126.88;;;3.04;84.52
64551;BME280;50945;44.472;-123.352;2023-03-16T05:47:41;101115.44;;;3.01;84.12
64551;BME280;50945;44.472;-123.352;2023-03-16T05:50:10;101119.38;;;2.97;84.78
64551;BME280;50945;44.472;-123.352;2023-03-16T05:52:37;101124.00;;;2.95;83.66
64551;BME280;50945;44.472;-123.352;2023-03-16T05:55:05;101124.13;;;2.93;83.62
64551;BME280;50945;44.472;-123.352;2023-03-16T05:57:32;101118.84;;;2.92;83.78
64551;BME280;50945;44.472;-123.352;2023-03-16T05:59:59;101120.03;;;2.88;83.61
64551;BME280;50945;44.472;-123.352;2023-03-16T06:02:27;101124.69;;;2.85;83.13
64551;BME280;50945;44.472;-123.352;2023-03-16T06:04:53;101115.13;;;2.81;83.56
64551;BME280;50945;44.472;-123.352;2023-03-16T06:07:20;101115.34;;;2.78;83.83
64551;BME280;50945;44.472;-123.352;2023-03-16T06:09:49;101119.03;;;2.77;85.20
64551;BME280;50945;44.472;-123.352;2023-03-16T06:12:15;101113.75;;;2.76;83.76
64551;BME280;50945;44.472;-123.352;2023-03-16T06:14:41;101105.13;;;2.71;86.92
64551;BME280;50945;44.472;-123.352;2023-03-16T06:17:08;101100.94;;;2.66;84.63
64551;BME280;50945;44.472;-123.352;2023-03-16T06:19:34;101113.66;;;2.64;85.49
64551;BME280;50945;44.472;-123.352;2023-03-16T06:22:00;101105.06;;;2.59;84.38
64551;BME280;50945;44.472;-123.352;2023-03-16T06:24:26;101103.56;;;2.55;84.82
64551;BME280;50945;44.472;-123.352;2023-03-16T06:26:52;101109.31;;;2.51;85.95
64551;BME280;50945;44.472;-123.352;2023-03-16T06:29:19;101105.13;;;2.46;85.72
64551;BME280;50945;44.472;-123.352;2023-03-16T06:31:46;101102.66;;;2.43;85.25
64551;BME280;50945;44.472;-123.352;2023-03-16T06:34:12;101103.75;;;2.41;86.15
64551;BME280;50945;44.472;-123.352;2023-03-16T06:36:39;101102.16;;;2.38;85.69
64551;BME280;50945;44.472;-123.352;2023-03-16T06:39:05;101092.63;;;2.33;85.86
64551;BME280;50945;44.472;-123.352;2023-03-16T06:41:31;101101.94;;;2.28;85.26
64551;BME280;50945;44.472;-123.352;2023-03-16T06:43:58;101096.03;;;2.23;88.51
64551;BME280;50945;44.472;-123.352;2023-03-16T06:46:25;101102.53;;;2.21;85.98
64551;BME280;50945;44.472;-123.352;2023-03-16T06:48:51;101100.88;;;2.18;86.84
64551;BME280;50945;44.472;-123.352;2023-03-16T06:51:17;101101.13;;;2.15;87.37
64551;BME280;50945;44.472;-123.352;2023-03-16T06:53:43;101096.81;;;2.13;86.22
64551;BME280;50945;44.472;-123.352;2023-03-16T06:56:09;101104.06;;;2.12;86.08
64551;BME280;50945;44.472;-123.352;2023-03-16T06:58:36;101099.50;;;2.13;85.73
64551;BME280;50945;44.472;-123.352;2023-03-16T07:01:03;101100.34;;;2.13;86.09
64551;BME280;50945;44.472;-123.352;2023-03-16T07:03:31;101093.91;;;2.16;85.83
64551;BME280;50945;44.472;-123.352;2023-03-16T07:05:58;101097.44;;;2.16;86.06
64551;BME280;50945;44.472;-123.352;2023-03-16T07:08:24;101094.84;;;2.15;87.12
64551;BME280;50945;44.472;-123.352;2023-03-16T07:10:53;101100.34;;;2.13;86.87
64551;BME280;50945;44.472;-123.352;2023-03-16T07:13:20;101100.50;;;2.12;87.79
64551;BME280;50945;44.472;-123.352;2023-03-16T07:15:49;101099.63;;;2.11;87.95
64551;BME280;50945;44.472;-123.352;2023-03-16T07:18:19;101098.75;;;2.11;87.06
64551;BME280;50945;44.472;-123.352;2023-03-16T07:20:45;101100.72;;;2.08;86.28
64551;BME280;50945;44.472;-123.352;2023-03-16T07:23:12;101100.72;;;2.08;86.09
64551;BME280;50945;44.472;-123.352;2023-03-16T07:25:39;101099.97;;;2.06;87.96
64551;BME280;50945;44.472;-123.352;2023-03-16T07:28:05;101092.72;;;2.07;86.98
64551;BME280;50945;44.472;-123.352;2023-03-16T07:30:31;101091.78;;;2.08;88.31
64551;BME280;50945;44.472;-123.352;2023-03-16T07:32:57;101097.16;;;2.08;87.19
64551;BME280;50945;44.472;-123.352;2023-03-16T07:35:24;101091.88;;;2.06;86.85
64551;BME280;50945;44.472;-123.352;2023-03-16T07:37:51;101097.28;;;2.06;87.18
64551;BME280;50945;44.472;-123.352;2023-03-16T07:40:18;101095.31;;;2.08;87.69
64551;BME280;50945;44.472;-123.352;2023-03-16T07:42:45;101088.81;;;2.11;88.21
64551;BME280;50945;44.472;-123.352;2023-03-16T07:45:11;101085.06;;;2.14;87.89
64551;BME280;50945;44.472;-123.352;2023-03-16T07:47:38;101083.09;;;2.16;87.70
64551;BME280;50945;44.472;-123.352;2023-03-16T07:50:05;101074.50;;;2.11;88.57
64551;BME280;50945;44.472;-123.352;2023-03-16T07:52:33;101083.78;;;2.06;88.28
64551;BME280;50945;44.472;-123.352;2023-03-16T07:54:59;101088.53;;;2.03;88.34
64551;BME280;50945;44.472;-123.352;2023-03-16T07:57:25;101080.78;;;1.98;87.78
64551;BME280;50945;44.472;-123.352;2023-03-16T07:59:51;101076.59;;;1.94;88.25
64551;BME280;50945;44.472;-123.352;2023-03-16T08:02:19;101072.38;;;1.90;88.73
64551;BME280;50945;44.472;-123.352;2023-03-16T08:04:46;101077.25;;;1.85;90.98
64551;BME280;50945;44.472;-123.352;2023-03-16T08:07:14;101072.94;;;1.82;89.35
64551;BME280;50945;44.472;-123.352;2023-03-16T08:09:40;101074.03;;;1.80;88.35
64551;BME280;50945;44.472;-123.352;2023-03-16T08:12:07;101075.09;;;1.77;89.76
64551;BME280;50945;44.472;-123.352;2023-03-16T08:14:35;101070.59;;;1.78;92.07
64551;BME280;50945;44.472;-123.352;2023-03-16T08:17:04;101067.66;;;1.81;89.49
64551;BME280;50945;44.472;-123.352;2023-03-16T08:19:32;101071.88;;;1.85;89.72
64551;BME280;50945;44.472;-123.352;2023-03-16T08:21:59;101074.22;;;1.89;92.00
64551;BME280;50945;44.472;-123.352;2023-03-16T08:24:28;101068.59;;;1.93;89.57
64551;BME280;50945;44.472;-123.352;2023-03-16T08:26:55;101073.00;;;1.94;89.47
64551;BME280;50945;44.472;-123.352;2023-03-16T08:29:22;101061.91;;;1.98;90.93
64551;BME280;50945;44.472;-123.352;2023-03-16T08:31:50;101064.16;;;2.04;89.79
64551;BME280;50945;44.472;-123.352;2023-03-16T08:34:17;101062.94;;;2.08;90.76
64551;BME280;50945;44.472;-123.352;2023-03-16T08:36:43;101058.41;;;2.09;88.82
64551;BME280;50945;44.472;-123.352;2023-03-16T08:39:10;101061.00;;;2.11;90.12
64551;BME280;50945;44.472;-123.352;2023-03-16T08:41:36;101063.81;;;2.09;90.27
64551;BME280;50945;44.472;-123.352;2023-03-16T08:44:02;101061.09;;;2.09;90.03
64551;BME280;50945;44.472;-123.352;2023-03-16T08:46:29;101065.44;;;2.12;89.31
64551;BME280;50945;44.472;-123.352;2023-03-16T08:48:55;101065.44;;;2.12;90.22
64551;BME280;50945;44.472;-123.352;2023-03-16T08:51:22;101059.03;;;2.13;91.68
64551;BME280;50945;44.472;-123.352;2023-03-16T08:53:49;101060.69;;;2.15;91.28
64551;BME280;50945;44.472;-123.352;2023-03-16T08:56:15;101058.09;;;2.14;89.45
64551;BME280;50945;44.472;-123.352;2023-03-16T08:58:42;101061.63;;;2.14;88.83
64551;BME280;50945;44.472;-123.352;2023-03-16T09:01:12;101061.41;;;2.17;90.35
64551;BME280;50945;44.472;-123.352;2023-03-16T09:03:39;101065.06;;;2.16;89.23
64551;BME280;50945;44.472;-123.352;2023-03-16T09:06:08;101061.63;;;2.14;89.06
64551;BME280;50945;44.472;-123.352;2023-03-16T09:08:36;101070.47;;;2.16;90.88
64551;BME280;50945;44.472;-123.352;2023-03-16T09:11:08;101065.06;;;2.16;90.33
64551;BME280;50945;44.472;-123.352;2023-03-16T09:13:36;101069.41;;;2.19;89.37
64551;BME280;50945;44.472;-123.352;2023-03-16T09:16:04;101065.81;;;2.18;89.11
64551;BME280;50945;44.472;-123.352;2023-03-16T09:18:30;101067.78;;;2.16;89.03
64551;BME280;50945;44.472;-123.352;2023-03-16T09:20:58;101065.94;;;2.17;89.34
64551;BME280;50945;44.472;-123.352;2023-03-16T09:23:26;101074.03;;;2.17;89.20
64551;BME280;50945;44.472;-123.352;2023-03-16T09:25:52;101065.06;;;2.16;88.82
64551;BME280;50945;44.472;-123.352;2023-03-16T09:28:21;101066.19;;;2.14;89.06
64551;BME280;50945;44.472;-123.352;2023-03-16T09:30:48;101067.25;;;2.11;89.21
64551;BME280;50945;44.472;-123.352;2023-03-16T09:33:15;101066.41;;;2.11;88.39
64551;BME280;50945;44.472;-123.352;2023-03-16T09:35:43;101068.34;;;2.08;88.97
64551;BME280;50945;44.472;-123.352;2023-03-16T09:38:10;101064.03;;;2.06;89.10
64551;BME280;50945;44.472;-123.352;2023-03-16T09:40:37;101066.09;;;2.02;89.21
64551;BME280;50945;44.472;-123.352;2023-03-16T09:48:50;101049.72;;;1.93;90.03
64551;BME280;50945;44.472;-123.352;2023-03-16T09:53:57;101052.44;;;1.93;89.58
64551;BME280;50945;44.472;-123.352;2023-03-16T09:56:34;101048.97;;;1.90;90.77
64551;BME280;50945;44.472;-123.352;2023-03-16T09:59:10;101053.75;;;1.87;90.41
64551;BME280;50945;44.472;-123.352;2023-03-16T10:04:20;101042.75;;;1.77;90.92
64551;BME280;50945;44.472;-123.352;2023-03-16T10:07:11;101039.31;;;1.75;89.85
64551;BME280;50945;44.472;-123.352;2023-03-16T10:09:58;101040.16;;;1.76;90.89
64551;BME280;50945;44.472;-123.352;2023-03-16T10:12:34;101039.09;;;1.78;90.44
64551;BME280;50945;44.472;-123.352;2023-03-16T10:15:07;101037.25;;;1.79;90.00
64551;BME280;50945;44.472;-123.352;2023-03-16T10:20:15;101035.75;;;1.75;89.81
64551;BME280;50945;44.472;-123.352;2023-03-16T10:22:45;101029.47;;;1.74;89.52
64551;BME280;50945;44.472;-123.352;2023-03-16T10:27:56;101032.53;;;1.69;90.68
64551;BME280;50945;44.472;-123.352;2023-03-16T10:32:49;101023.81;;;1.66;90.17
64551;BME280;50945;44.472;-123.352;2023-03-16T10:37:47;101024.13;;;1.61;90.63
64551;BME280;50945;44.472;-123.352;2023-03-16T10:40:14;101017.13;;;1.59;90.29
64551;BME280;50945;44.472;-123.352;2023-03-16T10:42:41;101012.81;;;1.56;90.94
64551;BME280;50945;44.472;-123.352;2023-03-16T10:45:24;101006.69;;;1.54;91.30
64551;BME280;50945;44.472;-123.352;2023-03-16T10:47:52;101013.06;;;1.53;90.26
64551;BME280;50945;44.472;-123.352;2023-03-16T10:50:23;100999.56;;;1.53;91.96
64551;BME280;50945;44.472;-123.352;2023-03-16T10:52:50;101004.09;;;1.52;91.23
64551;BME280;50945;44.472;-123.352;2023-03-16T10:55:27;101003.22;;;1.52;92.87
64551;BME280;50945;44.472;-123.352;2023-03-16T10:57:55;101002.47;;;1.50;93.04
64551;BME280;50945;44.472;-123.352;2023-03-16T11:00:26;101004.88;;;1.55;92.54
64551;BME280;50945;44.472;-123.352;2023-03-16T11:02:54;101005.72;;;1.55;92.89
64551;BME280;50945;44.472;-123.352;2023-03-16T11:05:32;101001.28;;;1.54;91.26
64551;BME280;50945;44.472;-123.352;2023-03-16T11:08:14;101015.75;;;1.53;91.53
64551;BME280;50945;44.472;-123.352;2023-03-16T11:10:45;101003.13;;;1.54;91.42
64551;BME280;50945;44.472;-123.352;2023-03-16T11:13:15;101004.09;;;1.52;90.80
64551;BME280;50945;44.472;-123.352;2023-03-16T11:15:54;101000.53;;;1.52;91.70
64551;BME280;50945;44.472;-123.352;2023-03-16T11:20:59;100998.81;;;1.51;91.18
64551;BME280;50945;44.472;-123.352;2023-03-16T11:23:32;101008.63;;;1.52;92.11
64551;BME280;50945;44.472;-123.352;2023-03-16T11:26:02;101004.09;;;1.52;90.94
64551;BME280;50945;44.472;-123.352;2023-03-16T11:28:38;101002.47;;;1.50;91.19
64551;BME280;50945;44.472;-123.352;2023-03-16T11:31:38;100994.63;;;1.47;91.67
64551;BME280;50945;44.472;-123.352;2023-03-16T11:34:16;100990.06;;;1.47;90.54
64551;BME280;50945;44.472;-123.352;2023-03-16T11:36:52;100995.38;;;1.49;93.09
64551;BME280;50945;44.472;-123.352;2023-03-16T11:39:43;100987.53;;;1.46;91.59
64551;BME280;50945;44.472;-123.352;2023-03-16T11:48:05;100984.41;;;1.39;93.17
64551;BME280;50945;44.472;-123.352;2023-03-16T11:50:56;100986.34;;;1.37;92.90
64551;BME280;50945;44.472;-123.352;2023-03-16T12:01:44;100985.06;;;1.30;93.79
64551;BME280;50945;44.472;-123.352;2023-03-16T12:04:22;100984.19;;;1.29;91.80
64551;BME280;50945;44.472;-123.352;2023-03-16T12:09:51;100987.97;;;1.27;92.41
64551;BME280;50945;44.472;-123.352;2023-03-16T12:17:48;100993.66;;;1.22;92.39
64551;BME280;50945;44.472;-123.352;2023-03-16T12:20:18;100990.97;;;1.22;92.38
64551;BME280;50945;44.472;-123.352;2023-03-16T12:22:52;100985.69;;;1.21;92.28
64551;BME280;50945;44.472;-123.352;2023-03-16T12:25:28;101000.03;;;1.21;92.58
64551;BME280;50945;44.472;-123.352;2023-03-16T12:27:58;101000.91;;;1.22;92.54
64551;BME280;50945;44.472;-123.352;2023-03-16T12:33:42;100995.72;;;1.19;92.30
64551;BME280;50945;44.472;-123.352;2023-03-16T12:39:07;100997.56;;;1.18;92.79
64551;BME280;50945;44.472;-123.352;2023-03-16T12:42:10;100999.41;;;1.18;92.67
64551;BME280;50945;44.472;-123.352;2023-03-16T12:47:35;100997.56;;;1.18;92.50
64551;BME280;50945;44.472;-123.352;2023-03-16T12:50:14;101000.34;;;1.17;92.01
64551;BME280;50945;44.472;-123.352;2023-03-16T12:52:44;100998.75;;;1.14;92.66
64551;BME280;50945;44.472;-123.352;2023-03-16T12:57:59;101000.69;;;1.12;92.83
64551;BME280;50945;44.472;-123.352;2023-03-16T13:00:35;101006.19;;;1.10;92.50
64551;BME280;50945;44.472;-123.352;2023-03-16T13:03:04;101005.41;;;1.08;92.79
64551;BME280;50945;44.472;-123.352;2023-03-16T13:05:34;101002.97;;;1.05;93.06
64551;BME280;50945;44.472;-123.352;2023-03-16T13:08:10;101006.50;;;1.06;93.25
64551;BME280;50945;44.472;-123.352;2023-03-16T13:10:38;101000.16;;;1.07;92.94
64551;BME280;50945;44.472;-123.352;2023-03-16T13:13:12;101006.41;;;1.07;92.68
64551;BME280;50945;44.472;-123.352;2023-03-16T13:15:43;101000.91;;;1.09;93.04
64551;BME280;50945;44.472;-123.352;2023-03-16T13:20:51;101000.25;;;1.05;93.17
64551;BME280;50945;44.472;-123.352;2023-03-16T13:23:21;100998.44;;;1.06;92.99
64551;BME280;50945;44.472;-123.352;2023-03-16T13:26:12;100999.50;;;1.03;92.60
64551;BME280;50945;44.472;-123.352;2023-03-16T13:28:41;100998.88;;;1.00;92.58
64551;BME280;50945;44.472;-123.352;2023-03-16T13:31:34;101003.59;;;0.96;92.61
64551;BME280;50945;44.472;-123.352;2023-03-16T13:34:02;100996.78;;;0.90;92.32
64551;BME280;50945;44.472;-123.352;2023-03-16T13:36:29;100996.38;;;0.84;92.64
64551;BME280;50945;44.472;-123.352;2023-03-16T13:39:29;100997.53;;;0.80;93.68
64551;BME280;50945;44.472;-123.352;2023-03-16T13:42:03;100998.84;;;0.74;93.14
64551;BME280;50945;44.472;-123.352;2023-03-16T13:44:30;100988.28;;;0.71;93.22
64551;BME280;50945;44.472;-123.352;2023-03-16T13:47:03;100998.38;;;0.67;93.07
64551;BME280;50945;44.472;-123.352;2023-03-16T13:49:29;100986.00;;;0.65;93.02